ADDS METAR Data INFO
IDs: Format: Raw Decoded Include TAF

Data at: 0339 UTC 24 Feb 2017

METAR for:KBRO (Brownsville Intl, TX, US)
Text:KBRO 240253Z 15011KT 10SM CLR 22/20 A2963 RMK AO2 SLP031 T02220200 51013
Temperature: 22.2°C ( 72°F)
Dewpoint: 20.0°C ( 68°F) [RH = 87%]
Pressure (altimeter):29.63 inches Hg (1003.5 mb) [Sea level pressure: 1003.1 mb]
Winds:from the SSE (150 degrees) at 13 MPH (11 knots; 5.7 m/s)
Visibility:10 or more sm (16+ km)
Ceiling:at least 12,000 feet AGL
Clouds:sky clear below 12,000 feet AGL


Page loaded:  03:39 UTC  |   07:39 PM Pacific  |   08:39 PM Mountain  |   09:39 PM Central  |   10:39 PM Eastern

 

ADVISORIES

FORECASTS

FORECASTS

OBSERVATIONS

USER TOOLS

ABOUT US